createdAt,value
2023-08-05T00:00:12.700Z,100646.56
2023-08-05T00:00:34.676Z,100647.84
2023-08-05T00:00:57.128Z,100645.80
2023-08-05T00:01:18.665Z,100648.00
2023-08-05T00:01:40.133Z,100649.29
2023-08-05T00:02:01.738Z,100647.55
2023-08-05T00:02:23.317Z,100648.14
2023-08-05T00:02:44.927Z,100647.80
2023-08-05T00:03:06.753Z,100646.65
2023-08-05T00:03:28.402Z,100647.69
2023-08-05T00:03:50.205Z,100647.45
2023-08-05T00:04:11.984Z,100648.02
2023-08-05T00:04:33.799Z,100647.94
2023-08-05T00:04:55.479Z,100646.61
2023-08-05T00:05:17.031Z,100646.92
2023-08-05T00:05:38.459Z,100649.43
2023-08-05T00:06:00.013Z,100649.39
2023-08-05T00:06:21.595Z,100646.29
2023-08-05T00:06:43.277Z,100646.59
2023-08-05T00:07:04.832Z,100650.17
2023-08-05T00:07:26.432Z,100649.94
2023-08-05T00:07:48.113Z,100649.73
2023-08-05T00:08:09.775Z,100648.42
2023-08-05T00:08:31.247Z,100648.60
2023-08-05T00:08:52.771Z,100651.59
2023-08-05T00:09:14.333Z,100650.36
2023-08-05T00:09:36.221Z,100650.48
2023-08-05T00:09:57.696Z,100648.38
2023-08-05T00:10:19.248Z,100648.67
2023-08-05T00:10:44.455Z,100648.02
2023-08-05T00:11:06.125Z,100648.73
2023-08-05T00:11:27.801Z,100648.91
2023-08-05T00:11:49.280Z,100651.91
2023-08-05T00:12:10.755Z,100648.39
2023-08-05T00:12:32.342Z,100649.83
2023-08-05T00:12:54.023Z,100652.40
2023-08-05T00:13:15.532Z,100650.45
2023-08-05T00:13:37.080Z,100650.20
2023-08-05T00:13:58.758Z,100649.28
2023-08-05T00:14:20.306Z,100651.57
2023-08-05T00:14:41.923Z,100655.08
2023-08-05T00:15:03.812Z,100651.64
2023-08-05T00:15:25.390Z,100651.66
2023-08-05T00:15:47.169Z,100654.11
2023-08-05T00:16:08.905Z,100654.65
2023-08-05T00:16:30.545Z,100652.98
2023-08-05T00:16:52.428Z,100655.05
2023-08-05T00:17:14.321Z,100652.09
2023-08-05T00:17:35.904Z,100654.20
2023-08-05T00:17:57.567Z,100651.72
2023-08-05T00:18:19.367Z,100653.30
2023-08-05T00:18:41.035Z,100653.13
2023-08-05T00:19:02.600Z,100652.52
2023-08-05T00:19:24.177Z,100653.42
2023-08-05T00:19:45.776Z,100649.58
2023-08-05T00:20:08.908Z,100652.41
2023-08-05T00:20:30.580Z,100651.27
2023-08-05T00:20:52.165Z,100651.14
2023-08-05T00:21:14.039Z,100648.95
2023-08-05T00:21:35.505Z,100649.58
2023-08-05T00:21:57.023Z,100648.85
2023-08-05T00:22:18.779Z,100648.10
2023-08-05T00:22:40.360Z,100651.30
2023-08-05T00:23:01.830Z,100653.07
2023-08-05T00:23:23.620Z,100648.38
2023-08-05T00:23:45.057Z,100648.25
2023-08-05T00:24:06.676Z,100653.02
2023-08-05T00:24:28.121Z,100652.06
2023-08-05T00:24:49.739Z,100649.93
2023-08-05T00:25:11.193Z,100653.59
2023-08-05T00:25:32.916Z,100652.83
2023-08-05T00:25:54.477Z,100652.81
2023-08-05T00:26:16.833Z,100652.98
2023-08-05T00:26:38.460Z,100653.66
2023-08-05T00:27:00.161Z,100658.48
2023-08-05T00:27:21.821Z,100658.79
2023-08-05T00:27:43.396Z,100655.10
2023-08-05T00:28:05.429Z,100655.81
2023-08-05T00:28:27.041Z,100656.94
2023-08-05T00:28:48.650Z,100657.93
2023-08-05T00:29:10.133Z,100657.77
2023-08-05T00:29:31.811Z,100658.58
2023-08-05T00:29:54.415Z,100657.02
2023-08-05T00:30:15.876Z,100657.80
2023-08-05T00:30:37.488Z,100657.14
2023-08-05T00:30:59.155Z,100656.64
2023-08-05T00:31:20.956Z,100654.29
2023-08-05T00:31:42.548Z,100657.26
2023-08-05T00:32:04.579Z,100658.00
2023-08-05T00:32:30.747Z,100658.32
2023-08-05T00:32:52.332Z,100659.89
2023-08-05T00:33:13.854Z,100655.27
2023-08-05T00:33:35.339Z,100657.70
2023-08-05T00:33:56.880Z,100659.77
2023-08-05T00:34:18.725Z,100660.11
2023-08-05T00:34:40.481Z,100660.81
2023-08-05T00:35:01.938Z,100659.73
2023-08-05T00:35:23.946Z,100657.86
2023-08-05T00:35:45.391Z,100659.23
2023-08-05T00:36:06.929Z,100658.74
2023-08-05T00:36:28.552Z,100656.51
2023-08-05T00:36:50.303Z,100660.02
2023-08-05T00:37:13.401Z,100660.66
2023-08-05T00:37:37.032Z,100657.30
2023-08-05T00:37:58.593Z,100660.02
2023-08-05T00:38:20.780Z,100658.93
2023-08-05T00:38:42.580Z,100660.23
2023-08-05T00:39:04.141Z,100660.35
2023-08-05T00:39:25.688Z,100659.63
2023-08-05T00:39:47.201Z,100660.09
2023-08-05T00:40:09.293Z,100661.55
2023-08-05T00:40:30.978Z,100661.48
2023-08-05T00:40:52.428Z,100659.78
2023-08-05T00:41:15.225Z,100661.95
2023-08-05T00:41:36.721Z,100660.27
2023-08-05T00:41:58.324Z,100660.39
2023-08-05T00:42:20.086Z,100659.48
2023-08-05T00:42:41.750Z,100663.88
2023-08-05T00:43:03.292Z,100663.52
2023-08-05T00:43:24.885Z,100664.85
2023-08-05T00:43:46.395Z,100665.95
2023-08-05T00:44:08.031Z,100661.09
2023-08-05T00:44:30.013Z,100667.25
2023-08-05T00:44:51.574Z,100661.98
2023-08-05T00:45:13.246Z,100663.53
2023-08-05T00:45:34.761Z,100662.88
2023-08-05T00:45:56.630Z,100663.82
2023-08-05T00:46:23.253Z,100666.23
2023-08-05T00:46:44.927Z,100664.86
2023-08-05T00:47:07.020Z,100664.55
2023-08-05T00:47:28.802Z,100662.86
2023-08-05T00:47:50.688Z,100665.05
2023-08-05T00:48:12.599Z,100660.27
2023-08-05T00:48:34.226Z,100661.16
2023-08-05T00:48:55.829Z,100661.25
2023-08-05T00:49:17.379Z,100661.98
2023-08-05T00:49:38.888Z,100661.05
2023-08-05T00:50:00.435Z,100661.88
2023-08-05T00:50:22.837Z,100660.87
2023-08-05T00:50:45.250Z,100660.63
2023-08-05T00:51:06.958Z,100664.36
2023-08-05T00:51:28.407Z,100658.48
2023-08-05T00:51:49.907Z,100661.17
2023-08-05T00:52:11.453Z,100657.56
2023-08-05T00:52:33.138Z,100660.89
2023-08-05T00:52:54.593Z,100662.53
2023-08-05T00:53:17.543Z,100658.91
2023-08-05T00:53:39.099Z,100664.02
2023-08-05T00:54:00.681Z,100660.77
2023-08-05T00:54:22.566Z,100662.61
2023-08-05T00:54:44.146Z,100666.07
2023-08-05T00:55:06.040Z,100664.14
2023-08-05T00:55:27.948Z,100663.07
2023-08-05T00:55:50.682Z,100664.74
2023-08-05T00:56:12.479Z,100664.55
2023-08-05T00:56:34.194Z,100664.11
2023-08-05T00:56:55.784Z,100663.10
2023-08-05T00:57:18.480Z,100664.39
2023-08-05T00:57:39.981Z,100667.89
2023-08-05T00:58:01.642Z,100665.33
2023-08-05T00:58:23.119Z,100666.45
2023-08-05T00:58:44.859Z,100666.63
2023-08-05T00:59:06.359Z,100665.03
2023-08-05T00:59:28.377Z,100668.80
2023-08-05T00:59:50.123Z,100666.86
2023-08-05T01:00:11.940Z,100666.20
2023-08-05T01:00:33.721Z,100666.48
2023-08-05T01:00:55.348Z,100665.20
2023-08-05T01:01:16.889Z,100664.36
2023-08-05T01:01:38.380Z,100666.02
2023-08-05T01:02:00.121Z,100667.09
2023-08-05T01:02:21.699Z,100665.21
2023-08-05T01:02:43.317Z,100666.04
2023-08-05T01:03:04.911Z,100665.27
2023-08-05T01:03:26.758Z,100662.10
2023-08-05T01:03:48.350Z,100662.52
2023-08-05T01:04:09.978Z,100661.89
2023-08-05T01:04:32.010Z,100661.84
2023-08-05T01:04:53.472Z,100661.67
2023-08-05T01:05:16.478Z,100662.22
2023-08-05T01:05:38.174Z,100661.89
2023-08-05T01:05:59.790Z,100661.64
2023-08-05T01:06:21.351Z,100660.16
2023-08-05T01:06:42.931Z,100660.17
2023-08-05T01:07:04.744Z,100663.91
2023-08-05T01:07:26.299Z,100664.91
2023-08-05T01:07:47.876Z,100664.77
2023-08-05T01:08:09.456Z,100662.60
2023-08-05T01:08:31.400Z,100663.48
2023-08-05T01:08:53.232Z,100666.73
2023-08-05T01:09:14.851Z,100666.80
2023-08-05T01:09:36.694Z,100662.15
2023-08-05T01:09:58.252Z,100663.40
2023-08-05T01:10:19.959Z,100664.00
2023-08-05T01:10:41.506Z,100665.10
2023-08-05T01:11:03.124Z,100665.52
2023-08-05T01:11:24.904Z,100667.23
2023-08-05T01:11:46.640Z,100664.41
2023-08-05T01:12:08.384Z,100665.10
2023-08-05T01:12:30.320Z,100670.29
2023-08-05T01:12:51.939Z,100666.41
2023-08-05T01:13:13.896Z,100665.67
2023-08-05T01:13:35.376Z,100663.55
2023-08-05T01:13:56.866Z,100666.23
2023-08-05T01:14:18.672Z,100667.59
2023-08-05T01:14:40.104Z,100668.73
2023-08-05T01:15:01.722Z,100667.64
2023-08-05T01:15:23.407Z,100666.77
2023-08-05T01:15:45.106Z,100668.92
2023-08-05T01:16:06.759Z,100668.90
2023-08-05T01:16:28.229Z,100671.23
2023-08-05T01:16:50.122Z,100670.03
2023-08-05T01:17:11.924Z,100670.40
2023-08-05T01:17:33.403Z,100665.48
2023-08-05T01:17:55.100Z,100667.88
2023-08-05T01:18:16.590Z,100670.19
2023-08-05T01:18:38.254Z,100668.69
2023-08-05T01:18:59.712Z,100667.75
2023-08-05T01:19:21.711Z,100668.61
2023-08-05T01:19:43.287Z,100667.61
2023-08-05T01:20:05.232Z,100667.45
2023-08-05T01:20:31.664Z,100669.48
2023-08-05T01:20:53.408Z,100669.84
2023-08-05T01:21:19.228Z,100665.65
2023-08-05T01:21:46.019Z,100669.59
2023-08-05T01:22:14.756Z,100667.67
2023-08-05T01:22:45.447Z,100668.84
2023-08-05T01:23:14.045Z,100670.09
2023-08-05T01:23:38.012Z,100669.86
2023-08-05T01:24:05.906Z,100670.48
2023-08-05T01:24:50.639Z,100667.75
2023-08-05T01:25:21.104Z,100666.56
2023-08-05T01:25:42.676Z,100666.66
2023-08-05T01:26:05.185Z,100670.72
2023-08-05T01:26:26.793Z,100670.89
2023-08-05T01:26:49.161Z,100668.73
2023-08-05T01:27:10.974Z,100671.08
2023-08-05T01:27:33.547Z,100671.05
2023-08-05T01:27:56.241Z,100671.25
2023-08-05T01:28:17.821Z,100672.55
2023-08-05T01:28:39.336Z,100673.23
2023-08-05T01:29:01.399Z,100671.73
2023-08-05T01:29:23.246Z,100677.39
2023-08-05T01:29:44.693Z,100675.86
2023-08-05T01:30:06.689Z,100674.84
2023-08-05T01:30:28.572Z,100671.92
2023-08-05T01:30:50.121Z,100672.97
2023-08-05T01:31:12.776Z,100676.16
2023-08-05T01:31:34.421Z,100676.34
2023-08-05T01:31:55.892Z,100674.52
2023-08-05T01:32:18.058Z,100673.95
2023-08-05T01:32:39.704Z,100673.98
2023-08-05T01:33:02.257Z,100673.98
2023-08-05T01:33:25.368Z,100672.16
2023-08-05T01:33:47.007Z,100672.77
2023-08-05T01:34:08.511Z,100673.39
2023-08-05T01:34:30.215Z,100672.02
2023-08-05T01:34:51.663Z,100667.84
2023-08-05T01:35:13.579Z,100669.89
2023-08-05T01:35:35.079Z,100674.78
2023-08-05T01:35:56.704Z,100671.25
2023-08-05T01:36:19.036Z,100671.60
2023-08-05T01:36:40.817Z,100670.65
2023-08-05T01:37:02.498Z,100673.05
2023-08-05T01:37:24.181Z,100668.64
2023-08-05T01:37:47.403Z,100671.83
2023-08-05T01:38:09.011Z,100674.48
2023-08-05T01:38:30.574Z,100672.53
2023-08-05T01:38:52.125Z,100674.19
2023-08-05T01:39:13.731Z,100674.45
2023-08-05T01:39:35.224Z,100674.07
2023-08-05T01:39:56.836Z,100675.99
2023-08-05T01:40:18.384Z,100673.55
2023-08-05T01:40:40.353Z,100674.88
2023-08-05T01:41:01.787Z,100671.83
2023-08-05T01:41:23.878Z,100673.04
2023-08-05T01:41:45.496Z,100671.91
2023-08-05T01:42:07.487Z,100673.54
2023-08-05T01:42:29.173Z,100672.98
2023-08-05T01:42:51.751Z,100672.77
2023-08-05T01:43:13.348Z,100674.05
2023-08-05T01:43:34.904Z,100672.23
2023-08-05T01:43:56.489Z,100673.36
2023-08-05T01:44:18.088Z,100675.32
2023-08-05T01:44:39.675Z,100673.70
2023-08-05T01:45:01.119Z,100672.30
2023-08-05T01:45:22.626Z,100674.38
2023-08-05T01:45:44.114Z,100672.61
2023-08-05T01:46:05.683Z,100675.36
2023-08-05T01:46:27.321Z,100671.92
2023-08-05T01:46:49.133Z,100677.15
2023-08-05T01:47:10.957Z,100674.33
2023-08-05T01:47:32.548Z,100671.23
2023-08-05T01:47:54.631Z,100673.61
2023-08-05T01:48:16.608Z,100676.50
2023-08-05T01:48:38.687Z,100678.74
2023-08-05T01:49:00.235Z,100675.73
2023-08-05T01:49:21.752Z,100674.36
2023-08-05T01:49:43.331Z,100674.73
2023-08-05T01:50:05.304Z,100674.77
2023-08-05T01:50:26.996Z,100676.96
2023-08-05T01:50:48.449Z,100677.80
2023-08-05T01:51:10.154Z,100677.30
2023-08-05T01:51:31.764Z,100676.64
2023-08-05T01:51:53.413Z,100678.98
2023-08-05T01:52:15.713Z,100674.95
2023-08-05T01:52:37.188Z,100675.42
2023-08-05T01:52:58.621Z,100675.25
2023-08-05T01:53:20.151Z,100675.25
2023-08-05T01:53:42.685Z,100678.23
2023-08-05T01:54:04.234Z,100678.17
2023-08-05T01:54:26.070Z,100674.04
2023-08-05T01:54:47.577Z,100676.89
2023-08-05T01:55:09.075Z,100676.07
2023-08-05T01:55:30.853Z,100675.94
2023-08-05T01:55:52.947Z,100675.60
2023-08-05T01:56:15.345Z,100678.06
2023-08-05T01:56:36.921Z,100675.70
2023-08-05T01:56:58.404Z,100678.73
2023-08-05T01:57:20.183Z,100673.80
2023-08-05T01:57:41.745Z,100679.39
2023-08-05T01:58:03.349Z,100674.72
2023-08-05T01:58:25.156Z,100674.31
2023-08-05T01:58:46.708Z,100675.60
2023-08-05T01:59:08.290Z,100676.48
2023-08-05T01:59:29.979Z,100676.35
2023-08-05T01:59:51.460Z,100677.15
2023-08-05T02:00:13.542Z,100679.39
2023-08-05T02:00:37.827Z,100683.33
2023-08-05T02:00:59.419Z,100685.06
2023-08-05T02:01:21.419Z,100689.09
2023-08-05T02:01:43.782Z,100689.55
2023-08-05T02:02:05.488Z,100690.87
2023-08-05T02:02:27.430Z,100687.48
2023-08-05T02:02:49.127Z,100690.55
2023-08-05T02:03:11.022Z,100688.73
2023-08-05T02:03:33.029Z,100684.96
2023-08-05T02:03:55.312Z,100683.68
2023-08-05T02:04:17.161Z,100686.91
2023-08-05T02:04:39.047Z,100686.84
2023-08-05T02:05:00.496Z,100686.35
2023-08-05T02:05:23.532Z,100687.71
2023-08-05T02:05:45.733Z,100688.46
2023-08-05T02:06:07.173Z,100687.25
2023-08-05T02:06:28.800Z,100688.08
2023-08-05T02:06:50.533Z,100689.24
2023-08-05T02:07:12.665Z,100687.83
2023-08-05T02:07:34.446Z,100685.50
2023-08-05T02:07:56.140Z,100688.78
2023-08-05T02:08:17.998Z,100688.27
2023-08-05T02:08:39.599Z,100688.47
2023-08-05T02:09:01.042Z,100687.47
2023-08-05T02:09:22.814Z,100689.71
2023-08-05T02:09:44.542Z,100690.71
2023-08-05T02:10:06.431Z,100688.76
2023-08-05T02:10:27.987Z,100691.19
2023-08-05T02:10:49.791Z,100686.63
2023-08-05T02:11:11.378Z,100686.48
2023-08-05T02:11:32.881Z,100689.98
2023-08-05T02:11:54.533Z,100691.33
2023-08-05T02:12:16.037Z,100689.34
2023-08-05T02:12:37.697Z,100687.46
2023-08-05T02:12:59.169Z,100692.56
2023-08-05T02:13:20.854Z,100694.10
2023-08-05T02:13:42.432Z,100694.71
2023-08-05T02:14:06.349Z,100696.55
2023-08-05T02:14:27.957Z,100691.04
2023-08-05T02:14:49.774Z,100692.37
2023-08-05T02:15:11.533Z,100693.20
2023-08-05T02:15:33.406Z,100693.17
2023-08-05T02:15:55.081Z,100694.02
2023-08-05T02:16:16.891Z,100691.81
2023-08-05T02:16:38.745Z,100692.15
2023-08-05T02:17:00.379Z,100693.11
2023-08-05T02:17:23.603Z,100692.30
2023-08-05T02:17:46.226Z,100692.64
2023-08-05T02:18:07.994Z,100696.88
2023-08-05T02:18:29.601Z,100700.10
2023-08-05T02:18:51.408Z,100701.39
2023-08-05T02:19:13.287Z,100700.32
2023-08-05T02:19:34.869Z,100698.66
2023-08-05T02:19:56.449Z,100703.47
2023-08-05T02:20:18.034Z,100706.08
2023-08-05T02:20:39.813Z,100704.14
2023-08-05T02:21:01.393Z,100706.92
2023-08-05T02:21:23.775Z,100706.55
2023-08-05T02:21:45.375Z,100705.85
2023-08-05T02:22:06.930Z,100705.68
2023-08-05T02:22:28.369Z,100704.11
2023-08-05T02:22:49.908Z,100702.13
2023-08-05T02:23:11.385Z,100703.52
2023-08-05T02:23:32.971Z,100705.59
2023-08-05T02:23:55.091Z,100703.48
2023-08-05T02:24:16.518Z,100704.23
2023-08-05T02:24:38.217Z,100704.35
2023-08-05T02:25:00.512Z,100704.71
2023-08-05T02:25:21.964Z,100703.06
2023-08-05T02:25:43.470Z,100704.46
2023-08-05T02:26:05.049Z,100702.94
2023-08-05T02:26:26.723Z,100702.02
2023-08-05T02:26:48.497Z,100703.52
2023-08-05T02:27:10.257Z,100700.16
2023-08-05T02:27:32.315Z,100701.53
2023-08-05T02:27:54.875Z,100698.88
2023-08-05T02:28:16.338Z,100700.58
2023-08-05T02:28:38.052Z,100700.11
2023-08-05T02:28:59.633Z,100701.65
2023-08-05T02:29:21.214Z,100701.23
2023-08-05T02:29:42.912Z,100702.77
2023-08-05T02:30:04.725Z,100702.13
2023-08-05T02:30:28.507Z,100700.13
2023-08-05T02:30:50.105Z,100702.58
2023-08-05T02:31:11.706Z,100701.02
2023-08-05T02:31:33.353Z,100703.63
2023-08-05T02:31:54.940Z,100704.40
2023-08-05T02:32:16.781Z,100702.75
2023-08-05T02:32:38.369Z,100703.70
2023-08-05T02:33:00.226Z,100702.84
2023-08-05T02:33:21.757Z,100702.39
2023-08-05T02:33:43.210Z,100702.64
2023-08-05T02:34:04.719Z,100698.51
2023-08-05T02:34:26.297Z,100697.73
2023-08-05T02:34:47.872Z,100699.27
2023-08-05T02:35:09.567Z,100699.38
2023-08-05T02:35:31.144Z,100698.23
2023-08-05T02:35:59.162Z,100699.23
2023-08-05T02:36:20.742Z,100701.04
2023-08-05T02:36:43.006Z,100700.26
2023-08-05T02:37:04.691Z,100701.27
2023-08-05T02:37:28.352Z,100699.27
2023-08-05T02:37:50.128Z,100703.00
2023-08-05T02:38:11.717Z,100705.78
2023-08-05T02:38:33.173Z,100704.70
2023-08-05T02:38:54.695Z,100703.38
2023-08-05T02:39:16.346Z,100704.31
2023-08-05T02:39:39.568Z,100702.58
2023-08-05T02:40:01.020Z,100703.58
2023-08-05T02:40:22.553Z,100705.11
2023-08-05T02:40:44.105Z,100705.30
2023-08-05T02:41:06.291Z,100703.61
2023-08-05T02:41:27.913Z,100704.73
2023-08-05T02:41:49.347Z,100705.88
2023-08-05T02:42:10.803Z,100706.17
2023-08-05T02:42:32.282Z,100707.30
2023-08-05T02:42:53.657Z,100704.40
2023-08-05T02:43:15.186Z,100703.09
2023-08-05T02:43:36.608Z,100705.98
2023-08-05T02:43:58.266Z,100703.29
2023-08-05T02:44:20.001Z,100705.98
2023-08-05T02:44:41.794Z,100707.05
2023-08-05T02:45:04.119Z,100708.31
2023-08-05T02:45:25.976Z,100708.14
2023-08-05T02:45:55.435Z,100705.66
2023-08-05T02:46:17.431Z,100706.99
2023-08-05T02:46:39.256Z,100706.45
2023-08-05T02:47:00.877Z,100710.08
2023-08-05T02:47:22.339Z,100708.31
2023-08-05T02:47:43.970Z,100706.77
2023-08-05T02:48:05.511Z,100707.17
2023-08-05T02:48:27.203Z,100710.02
2023-08-05T02:48:48.779Z,100709.33
2023-08-05T02:49:10.459Z,100707.88
2023-08-05T02:49:32.315Z,100709.86
2023-08-05T02:49:53.953Z,100708.13
2023-08-05T02:50:15.629Z,100709.40
2023-08-05T02:50:37.191Z,100709.98
2023-08-05T02:50:58.872Z,100709.23
2023-08-05T02:51:20.350Z,100711.59
2023-08-05T02:51:41.809Z,100710.02
2023-08-05T02:52:03.816Z,100709.86
2023-08-05T02:52:25.468Z,100712.55
2023-08-05T02:52:46.988Z,100710.97
2023-08-05T02:53:08.573Z,100711.67
2023-08-05T02:53:30.149Z,100711.05
2023-08-05T02:53:51.717Z,100710.89
2023-08-05T02:54:14.007Z,100713.04
2023-08-05T02:54:35.461Z,100708.98
2023-08-05T02:54:57.094Z,100710.30
2023-08-05T02:55:18.540Z,100708.77
2023-08-05T02:55:40.211Z,100710.04
2023-08-05T02:56:02.583Z,100707.30
2023-08-05T02:56:24.382Z,100709.91
2023-08-05T02:56:46.009Z,100707.93
2023-08-05T02:57:07.673Z,100707.00
2023-08-05T02:57:29.113Z,100706.13
2023-08-05T02:57:50.733Z,100704.67
2023-08-05T02:58:12.402Z,100703.36
2023-08-05T02:58:34.108Z,100704.20
2023-08-05T02:58:55.637Z,100701.89
2023-08-05T02:59:17.152Z,100702.54
2023-08-05T02:59:38.733Z,100702.21
2023-08-05T03:00:00.273Z,100705.81
2023-08-05T03:00:22.081Z,100701.39
2023-08-05T03:00:45.108Z,100701.37
2023-08-05T03:01:07.410Z,100700.09
2023-08-05T03:01:29.014Z,100701.54
2023-08-05T03:01:50.433Z,100700.73
2023-08-05T03:02:12.099Z,100702.65
2023-08-05T03:02:33.761Z,100701.69
2023-08-05T03:02:55.580Z,100700.91
2023-08-05T03:03:17.607Z,100701.65
2023-08-05T03:03:39.303Z,100701.85
2023-08-05T03:04:00.895Z,100701.39
2023-08-05T03:04:22.544Z,100698.83
2023-08-05T03:04:43.996Z,100701.27
2023-08-05T03:05:05.777Z,100701.73
2023-08-05T03:05:27.553Z,100701.84
2023-08-05T03:05:49.298Z,100703.91
2023-08-05T03:06:11.156Z,100702.95
2023-08-05T03:06:32.850Z,100705.73
2023-08-05T03:06:54.821Z,100700.35
2023-08-05T03:07:16.410Z,100700.59
2023-08-05T03:07:38.198Z,100702.00
2023-08-05T03:08:00.287Z,100706.42
2023-08-05T03:08:21.969Z,100704.60
2023-08-05T03:08:43.411Z,100705.39
2023-08-05T03:09:05.438Z,100707.55
2023-08-05T03:09:27.117Z,100707.46
2023-08-05T03:09:48.701Z,100707.09
2023-08-05T03:10:10.283Z,100707.91
2023-08-05T03:10:31.823Z,100711.63
2023-08-05T03:10:57.735Z,100708.95
2023-08-05T03:11:19.190Z,100708.70
2023-08-05T03:11:40.777Z,100712.59
2023-08-05T03:12:07.569Z,100712.71
2023-08-05T03:12:29.476Z,100711.02
2023-08-05T03:12:50.951Z,100712.11
2023-08-05T03:13:12.568Z,100713.10
2023-08-05T03:13:34.420Z,100715.70
2023-08-05T03:13:59.439Z,100714.67
2023-08-05T03:14:21.188Z,100713.82
2023-08-05T03:14:42.604Z,100711.73
2023-08-05T03:15:05.039Z,100714.76
2023-08-05T03:15:29.480Z,100713.63
2023-08-05T03:15:53.426Z,100712.53
2023-08-05T03:16:15.638Z,100711.92
2023-08-05T03:16:42.683Z,100716.49
2023-08-05T03:17:10.025Z,100713.84
2023-08-05T03:17:32.199Z,100711.04
2023-08-05T03:17:54.024Z,100710.98
2023-08-05T03:18:15.978Z,100712.92
2023-08-05T03:18:38.392Z,100712.55
2023-08-05T03:19:00.182Z,100714.86
2023-08-05T03:19:22.883Z,100714.86
2023-08-05T03:19:44.832Z,100715.55
2023-08-05T03:20:06.714Z,100715.58
2023-08-05T03:20:30.470Z,100718.15
2023-08-05T03:20:55.761Z,100712.95
2023-08-05T03:21:17.417Z,100714.48
2023-08-05T03:21:39.836Z,100713.74
2023-08-05T03:22:01.515Z,100712.98
2023-08-05T03:22:23.184Z,100712.61
2023-08-05T03:22:44.868Z,100714.55
2023-08-05T03:23:06.498Z,100713.29
2023-08-05T03:23:28.315Z,100713.63
2023-08-05T03:23:50.238Z,100716.17
2023-08-05T03:24:11.781Z,100716.73
2023-08-05T03:24:34.253Z,100716.41
2023-08-05T03:24:55.774Z,100716.61
2023-08-05T03:25:17.787Z,100716.98
2023-08-05T03:25:39.760Z,100716.34
2023-08-05T03:26:02.557Z,100716.05
2023-08-05T03:26:24.752Z,100717.83
2023-08-05T03:26:47.470Z,100717.95
2023-08-05T03:27:09.445Z,100717.65
2023-08-05T03:27:32.558Z,100717.52
2023-08-05T03:27:55.775Z,100720.20
2023-08-05T03:28:17.870Z,100718.39
2023-08-05T03:28:43.335Z,100716.98
2023-08-05T03:29:05.119Z,100719.96
2023-08-05T03:29:26.942Z,100717.45
2023-08-05T03:29:48.972Z,100717.74
2023-08-05T03:30:10.900Z,100718.73
2023-08-05T03:30:32.768Z,100715.33
2023-08-05T03:30:54.580Z,100715.61
2023-08-05T03:31:19.190Z,100714.77
2023-08-05T03:31:40.999Z,100717.18
2023-08-05T03:32:02.814Z,100710.98
2023-08-05T03:32:24.648Z,100711.68
2023-08-05T03:32:49.596Z,100711.34
2023-08-05T03:33:11.396Z,100713.62
2023-08-05T03:33:32.831Z,100711.61
2023-08-05T03:33:54.842Z,100712.44
2023-08-05T03:34:17.158Z,100711.35
2023-08-05T03:34:38.942Z,100709.46
2023-08-05T03:35:00.852Z,100709.04
2023-08-05T03:35:22.619Z,100711.15
2023-08-05T03:35:44.706Z,100709.77
2023-08-05T03:36:07.399Z,100713.27
2023-08-05T03:36:29.297Z,100713.05
2023-08-05T03:36:52.481Z,100711.67
2023-08-05T03:37:14.200Z,100709.04
2023-08-05T03:37:35.676Z,100715.33
2023-08-05T03:37:57.256Z,100712.30
2023-08-05T03:38:18.854Z,100714.86
2023-08-05T03:38:40.413Z,100711.61
2023-08-05T03:39:01.991Z,100715.70
2023-08-05T03:39:24.002Z,100715.34
2023-08-05T03:39:45.767Z,100711.90
2023-08-05T03:40:07.833Z,100713.14
2023-08-05T03:40:29.538Z,100712.52
2023-08-05T03:40:51.009Z,100713.80
2023-08-05T03:41:12.634Z,100712.79
2023-08-05T03:41:35.003Z,100714.02
2023-08-05T03:41:56.582Z,100711.91
2023-08-05T03:42:18.350Z,100711.82
2023-08-05T03:42:40.766Z,100711.56
2023-08-05T03:43:02.471Z,100713.84
2023-08-05T03:43:24.200Z,100713.10
2023-08-05T03:43:45.942Z,100715.05
2023-08-05T03:44:08.107Z,100713.22
2023-08-05T03:44:29.990Z,100714.42
2023-08-05T03:44:51.567Z,100717.11
2023-08-05T03:45:13.047Z,100714.16
2023-08-05T03:45:34.629Z,100715.12
2023-08-05T03:45:56.239Z,100717.43
2023-08-05T03:46:18.491Z,100718.30
2023-08-05T03:46:40.292Z,100718.88
2023-08-05T03:47:02.197Z,100718.34
2023-08-05T03:47:24.914Z,100718.16
2023-08-05T03:47:50.541Z,100715.52
2023-08-05T03:48:12.540Z,100720.27
2023-08-05T03:48:34.123Z,100720.55
2023-08-05T03:48:56.315Z,100719.04
2023-08-05T03:49:17.993Z,100721.84
2023-08-05T03:49:40.473Z,100720.66
2023-08-05T03:50:02.078Z,100719.98
2023-08-05T03:50:23.856Z,100718.76
2023-08-05T03:50:45.546Z,100715.38
2023-08-05T03:51:06.986Z,100716.16
2023-08-05T03:51:28.909Z,100716.44
2023-08-05T03:51:50.759Z,100719.02
2023-08-05T03:52:12.577Z,100718.60
2023-08-05T03:52:34.259Z,100717.09
2023-08-05T03:52:56.161Z,100715.27
2023-08-05T03:53:17.765Z,100714.98
2023-08-05T03:53:39.512Z,100716.17
2023-08-05T03:54:01.297Z,100715.48
2023-08-05T03:54:23.172Z,100717.20
2023-08-05T03:54:45.989Z,100713.30
2023-08-05T03:55:07.776Z,100711.30
2023-08-05T03:55:29.872Z,100714.41
2023-08-05T03:55:51.554Z,100713.50
2023-08-05T03:56:13.768Z,100712.02
2023-08-05T03:56:36.549Z,100712.17
2023-08-05T03:56:59.856Z,100713.71
2023-08-05T03:57:21.666Z,100711.69
2023-08-05T03:57:43.537Z,100713.77
2023-08-05T03:58:05.222Z,100712.52
2023-08-05T03:58:27.480Z,100714.03
2023-08-05T03:58:51.931Z,100712.91
2023-08-05T03:59:13.655Z,100716.61
2023-08-05T03:59:36.002Z,100714.89
2023-08-05T03:59:57.633Z,100714.52
2023-08-05T04:00:19.334Z,100715.73
2023-08-05T04:00:44.053Z,100718.61
2023-08-05T04:01:07.810Z,100717.38
2023-08-05T04:01:32.842Z,100714.66
2023-08-05T04:01:54.926Z,100714.81
2023-08-05T04:02:16.819Z,100712.91
2023-08-05T04:02:38.349Z,100712.53
2023-08-05T04:03:00.001Z,100713.23
2023-08-05T04:03:23.437Z,100714.84
2023-08-05T04:03:45.275Z,100714.77
2023-08-05T04:04:07.195Z,100713.77
2023-08-05T04:04:28.661Z,100713.09
2023-08-05T04:04:51.666Z,100713.88
2023-08-05T04:06:09.283Z,100712.83
2023-08-05T04:06:31.688Z,100712.09
2023-08-05T04:06:54.087Z,100715.36
2023-08-05T04:07:20.115Z,100713.58
2023-08-05T04:07:42.600Z,100715.11
2023-08-05T04:08:07.108Z,100717.25
2023-08-05T04:08:29.512Z,100719.32
2023-08-05T04:08:55.225Z,100715.71
2023-08-05T04:09:20.337Z,100716.29
2023-08-05T04:09:43.044Z,100717.77
2023-08-05T04:10:07.390Z,100718.33
2023-08-05T04:10:31.303Z,100715.91
2023-08-05T04:10:53.544Z,100713.25
2023-08-05T04:11:15.968Z,100718.31
2023-08-05T04:11:38.819Z,100718.77
2023-08-05T04:12:02.755Z,100719.66
2023-08-05T04:12:26.687Z,100717.95
2023-08-05T04:12:49.299Z,100716.66